createdAt,value
2022-09-27T00:00:46.626Z,9.59
2022-09-27T00:01:36.613Z,9.56
2022-09-27T00:02:26.656Z,9.56
2022-09-27T00:03:16.566Z,9.56
2022-09-27T00:04:06.553Z,9.60
2022-09-27T00:04:56.543Z,9.60
2022-09-27T00:05:46.528Z,9.62
2022-09-27T00:06:40.773Z,9.65
2022-09-27T00:07:26.509Z,9.68
2022-09-27T00:08:16.516Z,9.73
2022-09-27T00:09:06.499Z,9.73
2022-09-27T00:09:56.489Z,9.74
2022-09-27T00:10:46.476Z,9.77
2022-09-27T00:11:36.475Z,9.78
2022-09-27T00:12:26.475Z,9.80
2022-09-27T00:13:16.455Z,9.81
2022-09-27T00:14:06.444Z,9.80
2022-09-27T00:14:56.425Z,9.78
2022-09-27T00:15:46.458Z,9.77
2022-09-27T00:16:36.414Z,9.77
2022-09-27T00:17:26.397Z,9.75
2022-09-27T00:18:16.424Z,9.74
2022-09-27T00:19:06.380Z,9.74
2022-09-27T00:19:56.385Z,9.74
2022-09-27T00:20:46.373Z,9.73
2022-09-27T00:21:36.362Z,9.71
2022-09-27T00:22:26.345Z,9.71
2022-09-27T00:23:16.347Z,9.67
2022-09-27T00:24:06.354Z,9.68
2022-09-27T00:24:56.328Z,9.70
2022-09-27T00:25:46.304Z,9.73
2022-09-27T00:26:36.303Z,9.74
2022-09-27T00:27:26.295Z,9.73
2022-09-27T00:28:16.297Z,9.74
2022-09-27T00:29:06.271Z,9.75
2022-09-27T00:29:56.283Z,9.78
2022-09-27T00:30:46.304Z,9.77
2022-09-27T00:31:36.309Z,9.78
2022-09-27T00:32:26.234Z,9.78
2022-09-27T00:33:16.223Z,9.78
2022-09-27T00:34:06.215Z,9.77
2022-09-27T00:34:56.211Z,9.78
2022-09-27T00:35:46.222Z,9.80
2022-09-27T00:36:36.205Z,9.77
2022-09-27T00:37:26.175Z,9.78
2022-09-27T00:38:16.173Z,9.78
2022-09-27T00:39:06.168Z,9.77
2022-09-27T00:39:56.154Z,9.77
2022-09-27T00:40:46.191Z,9.75
2022-09-27T00:41:36.345Z,9.78
2022-09-27T00:42:26.122Z,9.75
2022-09-27T00:43:16.125Z,9.78
2022-09-27T00:44:06.100Z,9.78
2022-09-27T00:44:56.142Z,9.78
2022-09-27T00:45:46.162Z,9.81
2022-09-27T00:46:36.123Z,9.81
2022-09-27T00:47:26.071Z,9.85
2022-09-27T00:48:16.063Z,9.88
2022-09-27T00:49:06.054Z,9.86
2022-09-27T00:49:56.052Z,9.89
2022-09-27T00:50:46.053Z,9.91
2022-09-27T00:51:36.030Z,9.88
2022-09-27T00:52:26.013Z,9.89
2022-09-27T00:53:16.009Z,9.88
2022-09-27T00:54:05.994Z,9.86
2022-09-27T00:54:55.992Z,9.88
2022-09-27T00:55:45.978Z,9.89
2022-09-27T00:56:36.000Z,9.89
2022-09-27T00:57:25.961Z,9.89
2022-09-27T00:58:15.954Z,9.89
2022-09-27T00:59:05.937Z,9.89
2022-09-27T00:59:55.929Z,9.88
2022-09-27T01:00:45.919Z,9.88
2022-09-27T01:01:35.932Z,9.89
2022-09-27T01:02:25.961Z,9.88
2022-09-27T01:03:15.904Z,9.88
2022-09-27T01:04:05.881Z,9.86
2022-09-27T01:04:55.880Z,9.86
2022-09-27T01:05:45.860Z,9.85
2022-09-27T01:06:35.858Z,9.83
2022-09-27T01:07:25.840Z,9.83
2022-09-27T01:08:16.064Z,9.83
2022-09-27T01:09:05.847Z,9.85
2022-09-27T01:09:55.820Z,9.85
2022-09-27T01:10:45.800Z,9.86
2022-09-27T01:11:35.803Z,9.86
2022-09-27T01:12:25.794Z,9.89
2022-09-27T01:13:15.792Z,9.91
2022-09-27T01:14:05.773Z,9.91
2022-09-27T01:14:55.970Z,9.89
2022-09-27T01:15:45.789Z,9.91
2022-09-27T01:16:35.753Z,9.89
2022-09-27T01:17:25.732Z,9.86
2022-09-27T01:18:15.742Z,9.85
2022-09-27T01:19:05.721Z,9.85
2022-09-27T01:19:55.708Z,9.86
2022-09-27T01:20:45.718Z,9.85
2022-09-27T01:21:35.695Z,9.83
2022-09-27T01:22:25.679Z,9.83
2022-09-27T01:23:15.667Z,9.83
2022-09-27T01:24:05.657Z,9.83
2022-09-27T01:24:55.656Z,9.81
2022-09-27T01:25:45.652Z,9.81
2022-09-27T01:26:35.737Z,9.81
2022-09-27T01:27:25.625Z,9.81
2022-09-27T01:28:15.609Z,9.80
2022-09-27T01:29:05.617Z,9.78
2022-09-27T01:29:55.602Z,9.77
2022-09-27T01:30:45.614Z,9.78
2022-09-27T01:31:35.645Z,9.77
2022-09-27T01:32:25.588Z,9.74
2022-09-27T01:33:15.562Z,9.77
2022-09-27T01:34:05.561Z,9.75
2022-09-27T01:34:55.538Z,9.77
2022-09-27T01:35:45.537Z,9.78
2022-09-27T01:36:35.533Z,9.80
2022-09-27T01:37:25.508Z,9.78
2022-09-27T01:38:15.527Z,9.77
2022-09-27T01:39:05.528Z,9.77
2022-09-27T01:39:55.495Z,9.80
2022-09-27T01:40:45.522Z,9.78
2022-09-27T01:41:35.465Z,9.78
2022-09-27T01:42:25.458Z,9.80
2022-09-27T01:43:15.445Z,9.78
2022-09-27T01:44:05.443Z,9.81
2022-09-27T01:44:55.446Z,9.81
2022-09-27T01:45:45.474Z,9.81
2022-09-27T01:46:35.471Z,9.80
2022-09-27T01:47:25.405Z,9.80
2022-09-27T01:48:15.395Z,9.78
2022-09-27T01:49:05.375Z,9.78
2022-09-27T01:49:55.397Z,9.77
2022-09-27T01:50:45.368Z,9.75
2022-09-27T01:51:35.368Z,9.74
2022-09-27T01:52:25.343Z,9.71
2022-09-27T01:53:15.348Z,9.73
2022-09-27T01:54:05.324Z,9.74
2022-09-27T01:54:55.316Z,9.77
2022-09-27T01:55:45.344Z,9.77
2022-09-27T01:56:35.296Z,9.77
2022-09-27T01:57:25.285Z,9.77
2022-09-27T01:58:15.289Z,9.77
2022-09-27T01:59:05.266Z,9.73
2022-09-27T01:59:55.263Z,9.73
2022-09-27T02:00:45.244Z,9.73
2022-09-27T02:01:35.515Z,9.75
2022-09-27T02:02:25.267Z,9.73
2022-09-27T02:03:15.226Z,9.73
2022-09-27T02:04:05.213Z,9.70
2022-09-27T02:04:55.209Z,9.65
2022-09-27T02:05:45.242Z,9.68
2022-09-27T02:06:35.186Z,9.65
2022-09-27T02:07:25.205Z,9.68
2022-09-27T02:08:15.166Z,9.68
2022-09-27T02:09:05.153Z,9.70
2022-09-27T02:09:55.160Z,9.73
2022-09-27T02:10:45.173Z,9.70
2022-09-27T02:11:35.137Z,9.67
2022-09-27T02:12:25.125Z,9.70
2022-09-27T02:13:15.353Z,9.71
2022-09-27T02:14:05.093Z,9.71
2022-09-27T02:14:55.094Z,9.75
2022-09-27T02:15:45.128Z,9.74
2022-09-27T02:16:35.072Z,9.73
2022-09-27T02:17:25.055Z,9.75
2022-09-27T02:18:15.062Z,9.71
2022-09-27T02:19:05.062Z,9.71
2022-09-27T02:19:55.035Z,9.68
2022-09-27T02:20:45.025Z,9.68
2022-09-27T02:21:35.026Z,9.67
2022-09-27T02:22:25.003Z,9.59
2022-09-27T02:23:15.015Z,9.59
2022-09-27T02:24:04.984Z,9.60
2022-09-27T02:24:55.010Z,9.60
2022-09-27T02:25:44.971Z,9.50
2022-09-27T02:26:34.963Z,9.52
2022-09-27T02:27:24.951Z,9.49
2022-09-27T02:28:14.949Z,9.50
2022-09-27T02:29:04.934Z,9.52
2022-09-27T02:29:54.925Z,9.50
2022-09-27T02:30:45.016Z,9.52
2022-09-27T02:31:34.969Z,9.44
2022-09-27T02:32:24.893Z,9.49
2022-09-27T02:33:14.892Z,9.55
2022-09-27T02:34:04.872Z,9.52
2022-09-27T02:34:54.911Z,9.52
2022-09-27T02:35:44.861Z,9.53
2022-09-27T02:36:34.880Z,9.52
2022-09-27T02:37:24.840Z,9.49
2022-09-27T02:38:14.834Z,9.44
2022-09-27T02:39:04.821Z,9.45
2022-09-27T02:39:54.814Z,9.44
2022-09-27T02:40:44.850Z,9.38
2022-09-27T02:41:34.790Z,9.37
2022-09-27T02:42:25.006Z,9.35
2022-09-27T02:43:14.769Z,9.35
2022-09-27T02:44:04.769Z,9.32
2022-09-27T02:44:54.758Z,9.27
2022-09-27T02:45:44.784Z,9.23
2022-09-27T02:46:34.761Z,9.22
2022-09-27T02:47:24.736Z,9.23
2022-09-27T02:48:14.748Z,9.20
2022-09-27T02:49:04.715Z,9.19
2022-09-27T02:49:54.697Z,9.17
2022-09-27T02:50:44.728Z,9.19
2022-09-27T02:51:34.684Z,9.16
2022-09-27T02:52:24.678Z,9.19
2022-09-27T02:53:14.658Z,9.20
2022-09-27T02:54:04.670Z,9.17
2022-09-27T02:54:54.639Z,9.17
2022-09-27T02:55:44.638Z,9.20
2022-09-27T02:56:34.651Z,9.22
2022-09-27T02:57:24.619Z,9.23
2022-09-27T02:58:14.608Z,9.24
2022-09-27T02:59:04.611Z,9.27
2022-09-27T02:59:54.589Z,9.26
2022-09-27T03:00:44.577Z,9.26
2022-09-27T03:01:34.638Z,9.27
2022-09-27T03:02:24.630Z,9.26
2022-09-27T03:03:14.549Z,9.27
2022-09-27T03:04:04.536Z,9.27
2022-09-27T03:04:54.531Z,9.30
2022-09-27T03:05:44.535Z,9.30
2022-09-27T03:06:34.514Z,9.24
2022-09-27T03:07:24.506Z,9.24
2022-09-27T03:08:14.517Z,9.27
2022-09-27T03:09:04.485Z,9.26
2022-09-27T03:09:54.476Z,9.27
2022-09-27T03:10:44.465Z,9.23
2022-09-27T03:11:34.468Z,9.20
2022-09-27T03:12:24.450Z,9.10
2022-09-27T03:13:14.444Z,9.08
2022-09-27T03:14:09.104Z,9.08
2022-09-27T03:14:55.429Z,9.10
2022-09-27T03:15:44.416Z,9.13
2022-09-27T03:16:34.438Z,9.15
2022-09-27T03:17:24.396Z,9.15
2022-09-27T03:18:14.388Z,9.15
2022-09-27T03:19:04.385Z,9.16
2022-09-27T03:19:54.578Z,9.16
2022-09-27T03:20:44.356Z,9.16
2022-09-27T03:21:34.347Z,9.15
2022-09-27T03:22:24.345Z,9.15
2022-09-27T03:23:14.333Z,9.17
2022-09-27T03:24:04.323Z,9.15
2022-09-27T03:24:54.304Z,9.13
2022-09-27T03:25:44.328Z,9.13
2022-09-27T03:26:34.293Z,9.15
2022-09-27T03:27:24.285Z,9.15
2022-09-27T03:28:14.263Z,9.16
2022-09-27T03:29:04.267Z,9.15
2022-09-27T03:29:54.257Z,9.16
2022-09-27T03:30:44.278Z,9.15
2022-09-27T03:31:34.453Z,9.13
2022-09-27T03:32:24.255Z,9.13
2022-09-27T03:33:14.213Z,9.06
2022-09-27T03:34:04.233Z,9.03
2022-09-27T03:34:54.216Z,9.03
2022-09-27T03:35:44.191Z,9.01
2022-09-27T03:36:34.177Z,9.04
2022-09-27T03:37:24.381Z,9.04
2022-09-27T03:38:14.156Z,9.03
2022-09-27T03:39:04.161Z,9.06
2022-09-27T03:39:54.145Z,9.04
2022-09-27T03:40:44.209Z,9.06
2022-09-27T03:41:34.130Z,9.01
2022-09-27T03:42:24.122Z,9.01
2022-09-27T03:43:14.104Z,9.00
2022-09-27T03:44:04.118Z,9.00
2022-09-27T03:44:54.096Z,9.00
2022-09-27T03:45:44.124Z,8.98
2022-09-27T03:46:34.126Z,8.97
2022-09-27T03:47:24.062Z,8.98
2022-09-27T03:48:14.052Z,9.03
2022-09-27T03:49:04.052Z,9.01
2022-09-27T03:49:54.032Z,9.00
2022-09-27T03:50:44.023Z,9.01
2022-09-27T03:51:34.012Z,9.01
2022-09-27T03:52:24.237Z,9.01
2022-09-27T03:53:13.999Z,9.01
2022-09-27T03:54:03.983Z,8.97
2022-09-27T03:54:56.377Z,8.96
2022-09-27T03:55:44.965Z,8.96
2022-09-27T03:56:33.951Z,8.94
2022-09-27T03:57:23.952Z,8.93
2022-09-27T03:58:14.155Z,8.91
2022-09-27T03:59:03.932Z,8.91
2022-09-27T03:59:53.921Z,8.88
2022-09-27T04:00:43.920Z,8.88
2022-09-27T04:01:33.952Z,8.85
2022-09-27T04:02:23.935Z,8.85
2022-09-27T04:03:13.881Z,8.89
2022-09-27T04:04:06.504Z,8.89
2022-09-27T04:04:54.860Z,8.93
2022-09-27T04:05:43.860Z,8.89
2022-09-27T04:06:33.840Z,8.82
2022-09-27T04:07:23.866Z,8.75
2022-09-27T04:08:13.827Z,8.76
2022-09-27T04:09:03.827Z,8.71
2022-09-27T04:09:53.810Z,8.71
2022-09-27T04:10:43.801Z,8.68
2022-09-27T04:11:33.790Z,8.67
2022-09-27T04:12:23.779Z,8.71
2022-09-27T04:13:13.790Z,8.71
2022-09-27T04:14:03.772Z,8.71
2022-09-27T04:14:53.750Z,8.68
2022-09-27T04:15:44.467Z,8.67
2022-09-27T04:16:33.877Z,8.65
2022-09-27T04:17:23.729Z,8.61
2022-09-27T04:18:13.709Z,8.61
2022-09-27T04:19:03.745Z,8.60
2022-09-27T04:19:53.704Z,8.57
2022-09-27T04:20:43.696Z,8.55
2022-09-27T04:21:33.668Z,8.54
2022-09-27T04:22:23.669Z,8.54
2022-09-27T04:23:13.666Z,8.45
2022-09-27T04:24:03.648Z,8.45
2022-09-27T04:24:53.690Z,8.43
2022-09-27T04:25:43.637Z,8.39
2022-09-27T04:26:33.621Z,8.42
2022-09-27T04:27:23.619Z,8.42
2022-09-27T04:28:13.604Z,8.42
2022-09-27T04:29:03.617Z,8.42
2022-09-27T04:29:53.589Z,8.40
2022-09-27T04:30:43.683Z,8.37
2022-09-27T04:31:33.568Z,8.37
2022-09-27T04:32:23.557Z,8.32
2022-09-27T04:33:13.545Z,8.29
2022-09-27T04:34:03.552Z,8.29
2022-09-27T04:34:53.525Z,8.29
2022-09-27T04:35:43.516Z,8.29
2022-09-27T04:36:33.541Z,8.28
2022-09-27T04:37:23.507Z,8.28
2022-09-27T04:38:13.497Z,8.28
2022-09-27T04:39:03.526Z,8.27
2022-09-27T04:39:53.476Z,8.28
2022-09-27T04:40:43.534Z,8.21
2022-09-27T04:41:33.475Z,8.21
2022-09-27T04:42:50.595Z,8.18
2022-09-27T04:43:13.436Z,8.14
2022-09-27T04:44:03.435Z,8.13
2022-09-27T04:44:53.420Z,8.12
2022-09-27T04:45:43.462Z,8.10
2022-09-27T04:46:33.443Z,8.07
2022-09-27T04:47:23.397Z,8.06
2022-09-27T04:48:13.432Z,8.04
2022-09-27T04:49:03.374Z,8.04
2022-09-27T04:49:53.361Z,8.02
2022-09-27T04:50:43.356Z,7.96
2022-09-27T04:51:33.335Z,7.95
2022-09-27T04:52:23.341Z,7.95
2022-09-27T04:53:13.324Z,7.92
2022-09-27T04:54:03.379Z,7.91
2022-09-27T04:54:53.305Z,7.92
2022-09-27T04:55:43.296Z,7.94
2022-09-27T04:56:33.283Z,7.92
2022-09-27T04:57:23.286Z,7.95
2022-09-27T04:58:13.282Z,7.99
2022-09-27T04:59:07.007Z,7.99
2022-09-27T04:59:54.313Z,8.02
2022-09-27T05:00:43.252Z,7.99
2022-09-27T05:01:33.304Z,8.00
2022-09-27T05:02:23.286Z,8.04
2022-09-27T05:03:13.214Z,8.06
2022-09-27T05:04:03.202Z,8.04
2022-09-27T05:04:53.192Z,8.02
2022-09-27T05:05:43.215Z,8.02
2022-09-27T05:06:33.188Z,8.02
2022-09-27T05:07:23.173Z,8.02
2022-09-27T05:08:13.153Z,8.02
2022-09-27T05:09:03.153Z,8.02
2022-09-27T05:09:53.133Z,8.04
2022-09-27T05:10:43.156Z,8.03
2022-09-27T05:11:33.155Z,8.04
2022-09-27T05:12:23.123Z,8.04
2022-09-27T05:13:13.100Z,8.06
2022-09-27T05:14:03.102Z,8.04
2022-09-27T05:14:53.090Z,8.00
2022-09-27T05:15:43.081Z,7.99
2022-09-27T05:16:34.055Z,8.00
2022-09-27T05:17:23.112Z,8.02
2022-09-27T05:18:13.048Z,8.02
2022-09-27T05:19:03.040Z,8.03
2022-09-27T05:19:53.023Z,8.04
2022-09-27T05:20:43.019Z,8.04
2022-09-27T05:21:33.010Z,8.04
2022-09-27T05:22:23.000Z,8.03
2022-09-27T05:23:13.199Z,8.04
2022-09-27T05:24:02.988Z,8.06
2022-09-27T05:24:53.024Z,8.07
2022-09-27T05:25:42.979Z,8.07
2022-09-27T05:26:32.954Z,8.06
2022-09-27T05:27:22.952Z,8.09
2022-09-27T05:28:12.932Z,8.09
2022-09-27T05:29:02.942Z,8.07
2022-09-27T05:29:52.923Z,8.07
2022-09-27T05:30:42.973Z,8.12
2022-09-27T05:31:32.899Z,8.12
2022-09-27T05:32:22.899Z,8.14
2022-09-27T05:33:12.880Z,8.18
2022-09-27T05:34:02.879Z,8.20
2022-09-27T05:34:52.862Z,8.20
2022-09-27T05:35:45.561Z,8.22
2022-09-27T05:36:32.879Z,8.22
2022-09-27T05:37:22.841Z,8.18
2022-09-27T05:38:12.832Z,8.18
2022-09-27T05:39:02.830Z,8.18
2022-09-27T05:39:52.816Z,8.17
2022-09-27T05:40:42.916Z,8.17
2022-09-27T05:41:32.923Z,8.18
2022-09-27T05:42:22.849Z,8.17
2022-09-27T05:43:12.769Z,8.17
2022-09-27T05:44:02.779Z,8.14
2022-09-27T05:44:52.758Z,8.13
2022-09-27T05:45:42.764Z,8.13
2022-09-27T05:46:32.783Z,8.12
2022-09-27T05:47:22.727Z,8.12
2022-09-27T05:48:12.921Z,8.13
2022-09-27T05:49:02.712Z,8.10
2022-09-27T05:49:52.697Z,8.04
2022-09-27T05:50:42.689Z,8.04
2022-09-27T05:51:32.687Z,8.03
2022-09-27T05:52:23.364Z,8.04
2022-09-27T05:53:12.667Z,8.03
2022-09-27T05:54:02.685Z,8.06
2022-09-27T05:54:52.638Z,8.07
2022-09-27T05:55:42.639Z,8.12
2022-09-27T05:56:32.617Z,8.07
2022-09-27T05:57:22.867Z,8.09
2022-09-27T05:58:12.606Z,8.12
2022-09-27T05:59:02.597Z,8.13
2022-09-27T05:59:52.587Z,8.17
2022-09-27T06:00:42.587Z,8.22
2022-09-27T06:01:32.602Z,8.25
2022-09-27T06:02:22.603Z,8.28
2022-09-27T06:03:12.577Z,8.29
2022-09-27T06:04:02.547Z,8.27
2022-09-27T06:04:52.532Z,8.27
2022-09-27T06:05:42.519Z,8.27
2022-09-27T06:06:32.505Z,8.29
2022-09-27T06:07:22.508Z,8.31
2022-09-27T06:08:12.501Z,8.32
2022-09-27T06:09:02.570Z,8.32
2022-09-27T06:09:52.473Z,8.32
2022-09-27T06:10:42.478Z,8.34
2022-09-27T06:11:32.454Z,8.34
2022-09-27T06:12:22.452Z,8.32
2022-09-27T06:13:12.445Z,8.32
2022-09-27T06:14:02.433Z,8.34
2022-09-27T06:14:52.449Z,8.34
2022-09-27T06:15:42.413Z,8.34
2022-09-27T06:16:32.556Z,8.36
2022-09-27T06:17:22.393Z,8.36
2022-09-27T06:18:12.389Z,8.39
2022-09-27T06:19:02.393Z,8.39
2022-09-27T06:19:52.389Z,8.42
2022-09-27T06:20:42.584Z,8.45
2022-09-27T06:21:32.343Z,8.43
2022-09-27T06:22:22.333Z,8.46
2022-09-27T06:23:12.330Z,8.47
2022-09-27T06:24:02.313Z,8.47
2022-09-27T06:24:52.316Z,8.45
2022-09-27T06:25:42.304Z,8.43
2022-09-27T06:26:32.338Z,8.46
2022-09-27T06:27:22.284Z,8.47
2022-09-27T06:28:12.282Z,8.46
2022-09-27T06:29:02.262Z,8.47
2022-09-27T06:29:52.272Z,8.43
2022-09-27T06:30:42.308Z,8.42
2022-09-27T06:31:32.242Z,8.37
2022-09-27T06:32:22.251Z,8.37
2022-09-27T06:33:12.221Z,8.42
2022-09-27T06:34:02.203Z,8.45
2022-09-27T06:34:52.201Z,8.46
2022-09-27T06:35:42.181Z,8.46
2022-09-27T06:36:32.192Z,8.49
2022-09-27T06:37:22.171Z,8.52
2022-09-27T06:38:12.237Z,8.55
2022-09-27T06:39:02.151Z,8.52
2022-09-27T06:39:52.181Z,8.50
2022-09-27T06:40:42.162Z,8.50
2022-09-27T06:41:32.131Z,8.55
2022-09-27T06:42:22.112Z,8.57
2022-09-27T06:43:12.109Z,8.61
2022-09-27T06:44:02.309Z,8.65
2022-09-27T06:44:52.096Z,8.68
2022-09-27T06:45:42.121Z,8.71
2022-09-27T06:46:32.072Z,8.73
2022-09-27T06:47:22.060Z,8.73
2022-09-27T06:48:12.049Z,8.71
2022-09-27T06:49:02.037Z,8.73
2022-09-27T06:49:52.082Z,8.75
2022-09-27T06:50:42.018Z,8.75
2022-09-27T06:51:32.020Z,8.75
2022-09-27T06:52:22.000Z,8.75
2022-09-27T06:53:12.007Z,8.75
2022-09-27T06:54:01.991Z,8.76
2022-09-27T06:54:52.003Z,8.75
2022-09-27T06:55:41.989Z,8.70
2022-09-27T06:56:31.958Z,8.71
2022-09-27T06:57:21.945Z,8.60
2022-09-27T06:58:11.949Z,8.60
2022-09-27T06:59:01.930Z,8.63
2022-09-27T06:59:51.981Z,8.58
2022-09-27T07:00:41.907Z,8.64
2022-09-27T07:01:32.320Z,8.67
2022-09-27T07:02:21.920Z,8.68
2022-09-27T07:03:11.886Z,8.58
2022-09-27T07:04:01.868Z,8.60
2022-09-27T07:04:51.928Z,8.61
2022-09-27T07:05:41.854Z,8.60
2022-09-27T07:06:31.848Z,8.61
2022-09-27T07:07:21.918Z,8.58
2022-09-27T07:08:11.835Z,8.58
2022-09-27T07:09:01.869Z,8.60
2022-09-27T07:09:51.825Z,8.60
2022-09-27T07:10:41.805Z,8.65
2022-09-27T07:11:31.800Z,8.67
2022-09-27T07:12:21.775Z,8.71
2022-09-27T07:13:11.830Z,8.71
2022-09-27T07:14:01.763Z,8.75
2022-09-27T07:14:51.757Z,8.78
2022-09-27T07:15:41.746Z,8.76
2022-09-27T07:16:31.770Z,8.78
2022-09-27T07:17:21.722Z,8.80
2022-09-27T07:18:11.716Z,8.79
2022-09-27T07:19:01.920Z,8.75
2022-09-27T07:19:51.695Z,8.73
2022-09-27T07:20:41.703Z,8.67
2022-09-27T07:21:31.692Z,8.67
2022-09-27T07:22:21.674Z,8.64
2022-09-27T07:23:11.675Z,8.63
2022-09-27T07:24:01.661Z,8.63
2022-09-27T07:24:51.866Z,8.65
2022-09-27T07:25:41.634Z,8.67
2022-09-27T07:26:31.633Z,8.71
2022-09-27T07:27:21.617Z,8.76
2022-09-27T07:28:11.607Z,8.75
2022-09-27T07:29:01.605Z,8.76
2022-09-27T07:29:51.593Z,8.80
2022-09-27T07:30:41.822Z,8.78
2022-09-27T07:31:31.566Z,8.78
2022-09-27T07:32:21.567Z,8.76
2022-09-27T07:33:11.610Z,8.76
2022-09-27T07:34:01.543Z,8.78
2022-09-27T07:34:51.541Z,8.79
2022-09-27T07:35:41.561Z,8.83
2022-09-27T07:36:31.574Z,8.88
2022-09-27T07:37:21.502Z,8.89
2022-09-27T07:38:11.496Z,8.91
2022-09-27T07:39:01.482Z,8.91
2022-09-27T07:39:51.474Z,8.88
2022-09-27T07:40:41.511Z,8.83
2022-09-27T07:41:31.461Z,8.79
2022-09-27T07:42:21.491Z,8.73
2022-09-27T07:43:11.431Z,8.70
2022-09-27T07:44:01.429Z,8.70
2022-09-27T07:44:51.422Z,8.71
2022-09-27T07:45:41.424Z,8.73
2022-09-27T07:46:31.409Z,8.76
2022-09-27T07:47:21.392Z,8.75
2022-09-27T07:48:11.887Z,8.73
2022-09-27T07:49:01.368Z,8.71
2022-09-27T07:49:51.370Z,8.75
2022-09-27T07:50:41.351Z,8.76
2022-09-27T07:51:31.349Z,8.78
2022-09-27T07:52:21.340Z,8.82
2022-09-27T07:53:11.332Z,8.86
2022-09-27T07:54:05.266Z,8.88
2022-09-27T07:54:52.310Z,8.88
2022-09-27T07:55:41.290Z,8.93
2022-09-27T07:56:31.290Z,8.94
2022-09-27T07:57:21.280Z,8.96
2022-09-27T07:58:11.269Z,8.96
2022-09-27T07:59:01.269Z,8.98
2022-09-27T07:59:51.285Z,9.00
2022-09-27T08:00:41.260Z,9.03
2022-09-27T08:01:31.307Z,9.03
2022-09-27T08:02:21.270Z,9.04
2022-09-27T08:03:11.210Z,9.06
2022-09-27T08:04:01.198Z,9.06
2022-09-27T08:04:51.189Z,9.08
2022-09-27T08:05:41.231Z,9.04
2022-09-27T08:06:31.183Z,9.01
2022-09-27T08:07:21.160Z,8.98
2022-09-27T08:08:11.159Z,9.01
2022-09-27T08:09:01.146Z,9.03
2022-09-27T08:09:51.149Z,9.03
2022-09-27T08:10:41.128Z,9.04
2022-09-27T08:11:31.148Z,9.10
2022-09-27T08:12:21.117Z,9.12
2022-09-27T08:13:11.098Z,9.15
2022-09-27T08:14:01.089Z,9.15
2022-09-27T08:14:51.081Z,9.16
2022-09-27T08:15:41.069Z,9.16
2022-09-27T08:16:31.132Z,9.15
2022-09-27T08:17:21.275Z,9.15
2022-09-27T08:18:11.058Z,9.13
2022-09-27T08:19:01.036Z,9.12
2022-09-27T08:19:51.036Z,9.04
2022-09-27T08:20:41.017Z,9.01
2022-09-27T08:21:31.019Z,8.98
2022-09-27T08:22:21.008Z,9.00
2022-09-27T08:23:11.047Z,9.01
2022-09-27T08:24:00.988Z,9.06
2022-09-27T08:24:50.992Z,9.10
2022-09-27T08:25:40.965Z,9.10
2022-09-27T08:26:30.966Z,9.12
2022-09-27T08:27:20.946Z,9.13
2022-09-27T08:28:10.938Z,9.16
2022-09-27T08:29:00.974Z,9.17
2022-09-27T08:29:50.947Z,9.20
2022-09-27T08:30:40.915Z,9.24
2022-09-27T08:31:31.116Z,9.24
2022-09-27T08:32:23.476Z,9.27
2022-09-27T08:33:10.918Z,9.30
2022-09-27T08:34:00.867Z,9.20
2022-09-27T08:34:50.897Z,9.16
2022-09-27T08:35:40.860Z,9.17
2022-09-27T08:36:30.861Z,9.17
2022-09-27T08:37:20.825Z,9.16
2022-09-27T08:38:10.838Z,9.16
2022-09-27T08:39:00.806Z,9.19
2022-09-27T08:39:50.819Z,9.17
2022-09-27T08:40:40.889Z,9.12
2022-09-27T08:41:30.797Z,9.16
2022-09-27T08:42:20.830Z,9.19
2022-09-27T08:43:10.773Z,9.16
2022-09-27T08:44:00.765Z,9.20
2022-09-27T08:44:50.756Z,9.24
2022-09-27T08:45:40.770Z,9.26
2022-09-27T08:46:30.793Z,9.30
2022-09-27T08:47:20.727Z,9.31
2022-09-27T08:48:10.722Z,9.35
2022-09-27T08:49:00.707Z,9.35
2022-09-27T08:49:50.763Z,9.35
2022-09-27T08:50:40.692Z,9.34
2022-09-27T08:51:30.687Z,9.34
2022-09-27T08:52:20.939Z,9.35
2022-09-27T08:53:10.673Z,9.38
2022-09-27T08:54:00.642Z,9.37
2022-09-27T08:54:50.645Z,9.35
2022-09-27T08:55:40.649Z,9.35
2022-09-27T08:56:30.623Z,9.37
2022-09-27T08:57:20.620Z,9.38
2022-09-27T08:58:10.684Z,9.40
2022-09-27T08:59:00.595Z,9.40
2022-09-27T08:59:50.591Z,9.41
2022-09-27T09:00:40.638Z,9.41
2022-09-27T09:01:30.578Z,9.37
2022-09-27T09:02:20.750Z,9.34
2022-09-27T09:03:10.543Z,9.30
2022-09-27T09:04:00.561Z,9.22
2022-09-27T09:04:50.530Z,9.22
2022-09-27T09:05:40.518Z,9.22
2022-09-27T09:06:30.515Z,9.24
2022-09-27T09:07:20.500Z,9.23
2022-09-27T09:08:10.491Z,9.22
2022-09-27T09:09:00.479Z,9.16
2022-09-27T09:09:50.551Z,9.12
2022-09-27T09:10:40.462Z,9.13
2022-09-27T09:11:30.471Z,9.13
2022-09-27T09:12:20.450Z,9.12
2022-09-27T09:13:10.442Z,9.10
2022-09-27T09:14:00.420Z,9.12
2022-09-27T09:14:50.420Z,9.12
2022-09-27T09:15:40.447Z,9.10
2022-09-27T09:16:30.532Z,9.10
2022-09-27T09:17:20.379Z,9.08
2022-09-27T09:18:10.380Z,9.13
2022-09-27T09:19:00.373Z,9.17
2022-09-27T09:19:50.359Z,9.20
2022-09-27T09:20:40.349Z,9.23
2022-09-27T09:21:30.369Z,9.30
2022-09-27T09:22:20.332Z,9.31
2022-09-27T09:23:10.323Z,9.32
2022-09-27T09:24:00.358Z,9.32
2022-09-27T09:24:50.312Z,9.37
2022-09-27T09:25:40.289Z,9.38
2022-09-27T09:26:30.294Z,9.40
2022-09-27T09:27:20.280Z,9.38
2022-09-27T09:28:10.275Z,9.37
2022-09-27T09:29:00.250Z,9.40
2022-09-27T09:29:50.277Z,9.44
2022-09-27T09:30:40.238Z,9.50
2022-09-27T09:31:30.309Z,9.52
2022-09-27T09:32:20.218Z,9.58
2022-09-27T09:33:10.217Z,9.63
2022-09-27T09:34:00.198Z,9.67
2022-09-27T09:34:50.196Z,9.71
2022-09-27T09:35:40.217Z,9.75
2022-09-27T09:36:30.177Z,9.78
2022-09-27T09:37:20.166Z,9.74
2022-09-27T09:38:10.167Z,9.77
2022-09-27T09:39:00.136Z,9.68
2022-09-27T09:39:50.149Z,9.59
2022-09-27T09:40:40.154Z,9.65
2022-09-27T09:41:30.366Z,9.75
2022-09-27T09:42:20.115Z,9.80
2022-09-27T09:43:10.097Z,9.89
2022-09-27T09:44:00.113Z,9.99
2022-09-27T09:44:50.087Z,10.06
2022-09-27T09:45:40.108Z,10.13
2022-09-27T09:46:30.066Z,10.24
2022-09-27T09:47:20.286Z,10.32
2022-09-27T09:48:10.044Z,10.38
2022-09-27T09:49:00.033Z,10.38
2022-09-27T09:49:50.025Z,10.43
2022-09-27T09:50:40.024Z,10.47
2022-09-27T09:51:30.018Z,10.52
2022-09-27T09:52:19.996Z,10.57
2022-09-27T09:53:10.245Z,10.62
2022-09-27T09:53:59.986Z,10.65
2022-09-27T09:54:49.969Z,10.68
2022-09-27T09:55:39.967Z,10.69
2022-09-27T09:56:29.958Z,10.70
2022-09-27T09:57:19.944Z,10.63
2022-09-27T09:58:09.934Z,10.68
2022-09-27T09:58:59.992Z,10.60
2022-09-27T09:59:49.916Z,10.58
2022-09-27T10:00:39.931Z,10.63
2022-09-27T10:01:29.960Z,10.68
2022-09-27T10:02:20.030Z,10.65
2022-09-27T10:03:09.880Z,10.69
2022-09-27T10:03:59.876Z,10.70
2022-09-27T10:04:50.093Z,10.73
2022-09-27T10:05:39.864Z,10.70
2022-09-27T10:06:29.852Z,10.75
2022-09-27T10:07:19.839Z,10.76
2022-09-27T10:08:10.661Z,10.81
2022-09-27T10:08:59.834Z,10.84
2022-09-27T10:09:49.845Z,10.91
2022-09-27T10:10:39.802Z,10.93
2022-09-27T10:11:29.803Z,10.95
2022-09-27T10:12:19.790Z,10.99
2022-09-27T10:13:09.773Z,11.05
2022-09-27T10:13:59.756Z,11.11
2022-09-27T10:14:49.746Z,11.16
2022-09-27T10:15:40.002Z,11.19
2022-09-27T10:16:29.778Z,11.19
2022-09-27T10:17:19.715Z,11.17
2022-09-27T10:18:09.718Z,11.05
2022-09-27T10:18:59.707Z,11.03
2022-09-27T10:19:49.684Z,10.94
2022-09-27T10:20:39.687Z,10.91
2022-09-27T10:21:29.904Z,10.94
2022-09-27T10:22:19.665Z,11.02
2022-09-27T10:23:09.662Z,11.01
2022-09-27T10:23:59.654Z,10.98
2022-09-27T10:24:49.653Z,10.94
2022-09-27T10:25:39.634Z,10.94
2022-09-27T10:26:29.663Z,10.90
2022-09-27T10:27:19.685Z,10.87
2022-09-27T10:28:09.603Z,10.86
2022-09-27T10:28:59.610Z,10.83
2022-09-27T10:29:49.645Z,10.81
2022-09-27T10:30:39.574Z,10.80
2022-09-27T10:31:29.615Z,10.78
2022-09-27T10:32:19.923Z,10.72
2022-09-27T10:33:09.805Z,10.63
2022-09-27T10:33:59.550Z,10.60
2022-09-27T10:34:49.524Z,10.60
2022-09-27T10:35:39.513Z,10.60
2022-09-27T10:36:29.512Z,10.66
2022-09-27T10:37:19.492Z,10.69
2022-09-27T10:38:09.492Z,10.68
2022-09-27T10:38:59.544Z,10.68
2022-09-27T10:39:49.481Z,10.68
2022-09-27T10:40:39.502Z,10.65
2022-09-27T10:41:29.450Z,10.66
2022-09-27T10:42:19.462Z,10.66
2022-09-27T10:43:09.433Z,10.68
2022-09-27T10:43:59.430Z,10.66
2022-09-27T10:44:49.476Z,10.62
2022-09-27T10:45:39.441Z,10.69
2022-09-27T10:46:29.391Z,10.72
2022-09-27T10:47:19.413Z,10.72
2022-09-27T10:48:09.382Z,10.72
2022-09-27T10:48:59.395Z,10.73
2022-09-27T10:49:49.364Z,10.75
2022-09-27T10:50:50.933Z,10.81
2022-09-27T10:51:30.341Z,10.87
2022-09-27T10:52:19.330Z,10.94
2022-09-27T10:53:09.330Z,11.01
2022-09-27T10:53:59.311Z,11.05
2022-09-27T10:54:49.301Z,11.05
2022-09-27T10:55:39.301Z,11.08
2022-09-27T10:56:29.303Z,11.08
2022-09-27T10:57:19.281Z,11.08
2022-09-27T10:58:09.261Z,11.06
2022-09-27T10:58:59.252Z,11.05
2022-09-27T10:59:49.257Z,10.95
2022-09-27T11:00:39.265Z,10.91
2022-09-27T11:01:29.235Z,10.94
2022-09-27T11:02:19.250Z,10.98
2022-09-27T11:03:09.211Z,10.98